sensor_id;sensor_type;location;lat;lon;timestamp;temperature;humidity
13606;DHT22;6874;52.084;5.090;2022-12-29T00:02:15;9.70;99.90
13606;DHT22;6874;52.084;5.090;2022-12-29T00:04:40;9.80;99.90
13606;DHT22;6874;52.084;5.090;2022-12-29T00:07:06;9.70;99.90
13606;DHT22;6874;52.084;5.090;2022-12-29T00:09:33;9.80;99.90
13606;DHT22;6874;52.084;5.090;2022-12-29T00:11:59;9.80;99.90
13606;DHT22;6874;52.084;5.090;2022-12-29T00:14:25;9.80;99.90
13606;DHT22;6874;52.084;5.090;2022-12-29T00:17:09;9.80;99.90
13606;DHT22;6874;52.084;5.090;2022-12-29T00:19:35;9.80;99.90
13606;DHT22;6874;52.084;5.090;2022-12-29T00:22:19;9.80;99.90
13606;DHT22;6874;52.084;5.090;2022-12-29T00:25:14;9.80;99.90
13606;DHT22;6874;52.084;5.090;2022-12-29T00:27:58;9.80;99.90
13606;DHT22;6874;52.084;5.090;2022-12-29T00:30:43;9.80;99.90
13606;DHT22;6874;52.084;5.090;2022-12-29T00:33:32;9.80;99.90
13606;DHT22;6874;52.084;5.090;2022-12-29T00:38:55;9.80;99.90
13606;DHT22;6874;52.084;5.090;2022-12-29T00:41:40;9.80;99.90
13606;DHT22;6874;52.084;5.090;2022-12-29T00:44:24;9.80;99.90
13606;DHT22;6874;52.084;5.090;2022-12-29T00:46:50;9.90;99.90
13606;DHT22;6874;52.084;5.090;2022-12-29T00:49:15;9.80;99.90
13606;DHT22;6874;52.084;5.090;2022-12-29T00:52:07;9.80;99.90
13606;DHT22;6874;52.084;5.090;2022-12-29T00:54:35;9.90;99.90
13606;DHT22;6874;52.084;5.090;2022-12-29T00:57:02;9.90;99.90
13606;DHT22;6874;52.084;5.090;2022-12-29T00:59:27;9.90;99.90
13606;DHT22;6874;52.084;5.090;2022-12-29T01:01:54;9.90;99.90
13606;DHT22;6874;52.084;5.090;2022-12-29T01:04:24;9.90;99.90
13606;DHT22;6874;52.084;5.090;2022-12-29T01:06:50;9.90;99.90
13606;DHT22;6874;52.084;5.090;2022-12-29T01:09:17;10.00;99.90
13606;DHT22;6874;52.084;5.090;2022-12-29T01:12:02;9.90;99.90
13606;DHT22;6874;52.084;5.090;2022-12-29T01:14:27;9.90;99.90
13606;DHT22;6874;52.084;5.090;2022-12-29T01:16:54;9.90;99.90
13606;DHT22;6874;52.084;5.090;2022-12-29T01:19:20;9.90;99.90
13606;DHT22;6874;52.084;5.090;2022-12-29T01:21:46;9.90;99.90
13606;DHT22;6874;52.084;5.090;2022-12-29T01:24:12;9.90;99.90
13606;DHT22;6874;52.084;5.090;2022-12-29T01:26:37;9.90;99.90
13606;DHT22;6874;52.084;5.090;2022-12-29T01:29:03;9.90;99.90
13606;DHT22;6874;52.084;5.090;2022-12-29T01:31:29;9.90;99.90
13606;DHT22;6874;52.084;5.090;2022-12-29T01:33:54;10.00;99.90
13606;DHT22;6874;52.084;5.090;2022-12-29T01:36:20;9.90;99.90
13606;DHT22;6874;52.084;5.090;2022-12-29T01:38:46;9.90;99.90
13606;DHT22;6874;52.084;5.090;2022-12-29T01:41:14;9.90;99.90
13606;DHT22;6874;52.084;5.090;2022-12-29T01:43:48;9.90;99.90
13606;DHT22;6874;52.084;5.090;2022-12-29T01:48:47;10.00;99.90
13606;DHT22;6874;52.084;5.090;2022-12-29T01:51:14;10.00;99.90
13606;DHT22;6874;52.084;5.090;2022-12-29T01:53:41;9.90;99.90
13606;DHT22;6874;52.084;5.090;2022-12-29T01:56:10;9.90;99.90
13606;DHT22;6874;52.084;5.090;2022-12-29T01:58:39;9.90;99.90
13606;DHT22;6874;52.084;5.090;2022-12-29T02:01:07;10.00;99.90
13606;DHT22;6874;52.084;5.090;2022-12-29T02:03:33;9.90;99.90
13606;DHT22;6874;52.084;5.090;2022-12-29T02:06:08;9.90;99.90
13606;DHT22;6874;52.084;5.090;2022-12-29T02:08:35;9.90;99.90
13606;DHT22;6874;52.084;5.090;2022-12-29T02:11:02;10.00;99.90
13606;DHT22;6874;52.084;5.090;2022-12-29T02:13:28;9.90;99.90
13606;DHT22;6874;52.084;5.090;2022-12-29T02:35:20;10.00;99.90
13606;DHT22;6874;52.084;5.090;2022-12-29T02:37:56;10.00;99.90
13606;DHT22;6874;52.084;5.090;2022-12-29T02:40:55;9.90;99.90
13606;DHT22;6874;52.084;5.090;2022-12-29T02:46:19;9.90;99.90
13606;DHT22;6874;52.084;5.090;2022-12-29T02:48:54;9.90;99.90
13606;DHT22;6874;52.084;5.090;2022-12-29T02:51:29;9.90;99.90
13606;DHT22;6874;52.084;5.090;2022-12-29T02:53:57;9.90;99.90
13606;DHT22;6874;52.084;5.090;2022-12-29T02:56:42;9.90;99.90
13606;DHT22;6874;52.084;5.090;2022-12-29T02:59:08;9.90;99.90
13606;DHT22;6874;52.084;5.090;2022-12-29T03:02:05;9.90;99.90
13606;DHT22;6874;52.084;5.090;2022-12-29T03:05:37;9.90;99.90
13606;DHT22;6874;52.084;5.090;2022-12-29T03:08:34;9.90;99.90
13606;DHT22;6874;52.084;5.090;2022-12-29T03:11:08;9.90;99.90
13606;DHT22;6874;52.084;5.090;2022-12-29T03:17:10;9.90;99.90
13606;DHT22;6874;52.084;5.090;2022-12-29T03:19:46;9.80;99.90
13606;DHT22;6874;52.084;5.090;2022-12-29T03:22:20;9.80;99.90
13606;DHT22;6874;52.084;5.090;2022-12-29T03:27:34;9.80;99.90
13606;DHT22;6874;52.084;5.090;2022-12-29T03:30:03;9.80;99.90
13606;DHT22;6874;52.084;5.090;2022-12-29T03:32:46;9.70;99.90
13606;DHT22;6874;52.084;5.090;2022-12-29T03:35:14;9.70;99.90
13606;DHT22;6874;52.084;5.090;2022-12-29T03:37:48;9.70;99.90
13606;DHT22;6874;52.084;5.090;2022-12-29T03:40:15;9.70;99.90
13606;DHT22;6874;52.084;5.090;2022-12-29T03:42:41;9.70;99.90
13606;DHT22;6874;52.084;5.090;2022-12-29T03:45:07;9.70;99.90
13606;DHT22;6874;52.084;5.090;2022-12-29T03:47:34;9.70;99.90
13606;DHT22;6874;52.084;5.090;2022-12-29T03:49:59;9.70;99.90
13606;DHT22;6874;52.084;5.090;2022-12-29T03:52:26;9.70;99.90
13606;DHT22;6874;52.084;5.090;2022-12-29T03:54:52;9.70;99.90
13606;DHT22;6874;52.084;5.090;2022-12-29T03:57:18;9.60;99.90
13606;DHT22;6874;52.084;5.090;2022-12-29T03:59:43;9.60;99.90
13606;DHT22;6874;52.084;5.090;2022-12-29T04:02:09;9.70;99.90
13606;DHT22;6874;52.084;5.090;2022-12-29T04:04:34;9.60;99.90
13606;DHT22;6874;52.084;5.090;2022-12-29T04:07:00;9.70;99.90
13606;DHT22;6874;52.084;5.090;2022-12-29T04:09:25;9.60;99.90
13606;DHT22;6874;52.084;5.090;2022-12-29T04:11:51;9.60;99.90
13606;DHT22;6874;52.084;5.090;2022-12-29T04:14:16;9.60;99.90
13606;DHT22;6874;52.084;5.090;2022-12-29T04:16:42;9.50;99.90
13606;DHT22;6874;52.084;5.090;2022-12-29T04:19:08;9.50;99.90
13606;DHT22;6874;52.084;5.090;2022-12-29T04:21:34;9.50;99.90
13606;DHT22;6874;52.084;5.090;2022-12-29T04:23:59;9.50;99.90
13606;DHT22;6874;52.084;5.090;2022-12-29T04:26:25;9.50;99.90
13606;DHT22;6874;52.084;5.090;2022-12-29T04:28:51;9.50;99.90
13606;DHT22;6874;52.084;5.090;2022-12-29T04:31:16;9.50;99.90
13606;DHT22;6874;52.084;5.090;2022-12-29T04:33:42;9.50;99.90
13606;DHT22;6874;52.084;5.090;2022-12-29T04:36:07;9.50;99.90
13606;DHT22;6874;52.084;5.090;2022-12-29T04:38:33;9.50;99.90
13606;DHT22;6874;52.084;5.090;2022-12-29T04:41:00;9.50;99.90
13606;DHT22;6874;52.084;5.090;2022-12-29T04:43:26;9.50;99.90
13606;DHT22;6874;52.084;5.090;2022-12-29T04:45:51;9.50;99.90
13606;DHT22;6874;52.084;5.090;2022-12-29T04:48:17;9.50;99.90
13606;DHT22;6874;52.084;5.090;2022-12-29T04:50:43;9.40;99.90
13606;DHT22;6874;52.084;5.090;2022-12-29T04:53:09;9.40;99.90
13606;DHT22;6874;52.084;5.090;2022-12-29T04:55:35;9.50;99.90
13606;DHT22;6874;52.084;5.090;2022-12-29T04:58:00;9.40;99.90
13606;DHT22;6874;52.084;5.090;2022-12-29T05:00:26;9.40;99.90
13606;DHT22;6874;52.084;5.090;2022-12-29T05:02:51;9.40;99.90
13606;DHT22;6874;52.084;5.090;2022-12-29T05:05:17;9.40;99.90
13606;DHT22;6874;52.084;5.090;2022-12-29T05:07:43;9.40;99.90
13606;DHT22;6874;52.084;5.090;2022-12-29T05:10:09;9.40;99.90
13606;DHT22;6874;52.084;5.090;2022-12-29T05:12:36;9.40;99.90
13606;DHT22;6874;52.084;5.090;2022-12-29T05:15:04;9.40;99.90
13606;DHT22;6874;52.084;5.090;2022-12-29T05:17:29;9.30;99.90
13606;DHT22;6874;52.084;5.090;2022-12-29T05:19:55;9.30;99.90
13606;DHT22;6874;52.084;5.090;2022-12-29T05:22:21;9.30;99.90
13606;DHT22;6874;52.084;5.090;2022-12-29T05:24:46;9.30;99.90
13606;DHT22;6874;52.084;5.090;2022-12-29T05:27:12;9.30;99.90
13606;DHT22;6874;52.084;5.090;2022-12-29T05:29:37;9.30;99.90
13606;DHT22;6874;52.084;5.090;2022-12-29T05:32:03;9.30;99.90
13606;DHT22;6874;52.084;5.090;2022-12-29T05:34:29;9.30;99.90
13606;DHT22;6874;52.084;5.090;2022-12-29T05:36:54;9.40;99.90
13606;DHT22;6874;52.084;5.090;2022-12-29T05:39:20;9.30;99.90
13606;DHT22;6874;52.084;5.090;2022-12-29T05:41:45;9.30;99.90
13606;DHT22;6874;52.084;5.090;2022-12-29T05:44:11;9.30;99.90
13606;DHT22;6874;52.084;5.090;2022-12-29T05:46:37;9.30;99.90
13606;DHT22;6874;52.084;5.090;2022-12-29T05:49:03;9.30;99.90
13606;DHT22;6874;52.084;5.090;2022-12-29T05:51:28;9.30;99.90
13606;DHT22;6874;52.084;5.090;2022-12-29T05:53:54;9.30;99.90
13606;DHT22;6874;52.084;5.090;2022-12-29T05:56:20;9.30;99.90
13606;DHT22;6874;52.084;5.090;2022-12-29T05:58:45;9.30;99.90
13606;DHT22;6874;52.084;5.090;2022-12-29T06:01:11;9.30;99.90
13606;DHT22;6874;52.084;5.090;2022-12-29T06:03:36;9.30;99.90
13606;DHT22;6874;52.084;5.090;2022-12-29T06:06:02;9.20;99.90
13606;DHT22;6874;52.084;5.090;2022-12-29T06:08:27;9.30;99.90
13606;DHT22;6874;52.084;5.090;2022-12-29T06:10:53;9.30;99.90
13606;DHT22;6874;52.084;5.090;2022-12-29T06:13:18;9.30;99.90
13606;DHT22;6874;52.084;5.090;2022-12-29T06:15:44;9.30;99.90
13606;DHT22;6874;52.084;5.090;2022-12-29T06:18:09;9.20;99.90
13606;DHT22;6874;52.084;5.090;2022-12-29T06:20:35;9.20;99.90
13606;DHT22;6874;52.084;5.090;2022-12-29T06:23:01;9.20;99.90
13606;DHT22;6874;52.084;5.090;2022-12-29T06:25:26;9.20;99.90
13606;DHT22;6874;52.084;5.090;2022-12-29T06:27:52;9.30;99.90
13606;DHT22;6874;52.084;5.090;2022-12-29T06:30:17;9.20;99.90
13606;DHT22;6874;52.084;5.090;2022-12-29T06:32:43;9.20;99.90
13606;DHT22;6874;52.084;5.090;2022-12-29T06:35:09;9.20;99.90
13606;DHT22;6874;52.084;5.090;2022-12-29T06:37:35;9.20;99.90
13606;DHT22;6874;52.084;5.090;2022-12-29T06:40:01;9.20;99.90
13606;DHT22;6874;52.084;5.090;2022-12-29T06:42:27;9.20;99.90
13606;DHT22;6874;52.084;5.090;2022-12-29T06:44:52;9.20;99.90
13606;DHT22;6874;52.084;5.090;2022-12-29T06:47:18;9.20;99.90
13606;DHT22;6874;52.084;5.090;2022-12-29T06:49:44;9.20;99.90
13606;DHT22;6874;52.084;5.090;2022-12-29T06:52:09;9.10;99.90
13606;DHT22;6874;52.084;5.090;2022-12-29T06:54:35;9.20;99.90
13606;DHT22;6874;52.084;5.090;2022-12-29T06:57:01;9.10;99.90
13606;DHT22;6874;52.084;5.090;2022-12-29T06:59:26;9.20;99.90
13606;DHT22;6874;52.084;5.090;2022-12-29T07:01:52;9.10;99.90
13606;DHT22;6874;52.084;5.090;2022-12-29T07:04:18;9.10;99.90
13606;DHT22;6874;52.084;5.090;2022-12-29T07:06:43;9.10;99.90
13606;DHT22;6874;52.084;5.090;2022-12-29T07:09:10;9.10;99.90
13606;DHT22;6874;52.084;5.090;2022-12-29T07:11:35;9.10;99.90
13606;DHT22;6874;52.084;5.090;2022-12-29T07:14:02;9.10;99.90
13606;DHT22;6874;52.084;5.090;2022-12-29T07:16:28;9.00;99.90
13606;DHT22;6874;52.084;5.090;2022-12-29T07:18:54;9.00;99.90
13606;DHT22;6874;52.084;5.090;2022-12-29T07:21:20;9.00;99.90
13606;DHT22;6874;52.084;5.090;2022-12-29T07:23:46;9.00;99.90
13606;DHT22;6874;52.084;5.090;2022-12-29T07:26:13;9.00;99.90
13606;DHT22;6874;52.084;5.090;2022-12-29T07:28:39;9.00;99.90
13606;DHT22;6874;52.084;5.090;2022-12-29T07:31:17;8.90;99.90
13606;DHT22;6874;52.084;5.090;2022-12-29T07:33:44;8.90;99.90
13606;DHT22;6874;52.084;5.090;2022-12-29T07:36:10;8.90;99.90
13606;DHT22;6874;52.084;5.090;2022-12-29T07:38:35;8.90;99.90
13606;DHT22;6874;52.084;5.090;2022-12-29T07:41:01;8.90;99.90
13606;DHT22;6874;52.084;5.090;2022-12-29T07:43:27;8.90;99.90
13606;DHT22;6874;52.084;5.090;2022-12-29T07:45:52;8.90;99.90
13606;DHT22;6874;52.084;5.090;2022-12-29T07:48:18;8.80;99.90
13606;DHT22;6874;52.084;5.090;2022-12-29T07:50:44;8.80;99.90
13606;DHT22;6874;52.084;5.090;2022-12-29T07:53:09;8.90;99.90
13606;DHT22;6874;52.084;5.090;2022-12-29T07:55:35;8.80;99.90
13606;DHT22;6874;52.084;5.090;2022-12-29T07:58:00;8.80;99.90
13606;DHT22;6874;52.084;5.090;2022-12-29T08:00:26;8.80;99.90
13606;DHT22;6874;52.084;5.090;2022-12-29T08:02:51;8.80;99.90
13606;DHT22;6874;52.084;5.090;2022-12-29T08:05:17;8.90;99.90
13606;DHT22;6874;52.084;5.090;2022-12-29T08:07:44;8.80;99.90
13606;DHT22;6874;52.084;5.090;2022-12-29T08:10:10;8.80;99.90
13606;DHT22;6874;52.084;5.090;2022-12-29T08:12:38;8.80;99.90
13606;DHT22;6874;52.084;5.090;2022-12-29T08:15:04;8.80;99.90
13606;DHT22;6874;52.084;5.090;2022-12-29T08:17:30;8.80;99.90
13606;DHT22;6874;52.084;5.090;2022-12-29T08:19:56;8.80;99.90
13606;DHT22;6874;52.084;5.090;2022-12-29T08:22:21;8.80;99.90
13606;DHT22;6874;52.084;5.090;2022-12-29T08:24:47;8.80;99.90
13606;DHT22;6874;52.084;5.090;2022-12-29T08:27:13;8.80;99.90
13606;DHT22;6874;52.084;5.090;2022-12-29T08:29:38;8.80;99.90
13606;DHT22;6874;52.084;5.090;2022-12-29T08:32:04;8.80;99.90
13606;DHT22;6874;52.084;5.090;2022-12-29T08:34:31;8.90;99.90
13606;DHT22;6874;52.084;5.090;2022-12-29T08:36:56;8.80;99.90
13606;DHT22;6874;52.084;5.090;2022-12-29T08:39:22;8.80;99.90
13606;DHT22;6874;52.084;5.090;2022-12-29T08:41:47;8.80;99.90
13606;DHT22;6874;52.084;5.090;2022-12-29T08:44:13;8.80;99.90
13606;DHT22;6874;52.084;5.090;2022-12-29T08:46:39;8.80;99.90
13606;DHT22;6874;52.084;5.090;2022-12-29T08:49:04;8.80;99.90
13606;DHT22;6874;52.084;5.090;2022-12-29T08:51:30;8.80;99.90
13606;DHT22;6874;52.084;5.090;2022-12-29T08:53:56;8.80;99.90
13606;DHT22;6874;52.084;5.090;2022-12-29T08:56:21;8.80;99.90
13606;DHT22;6874;52.084;5.090;2022-12-29T08:58:49;8.80;99.90
13606;DHT22;6874;52.084;5.090;2022-12-29T09:01:15;8.80;99.90
13606;DHT22;6874;52.084;5.090;2022-12-29T09:03:40;8.90;99.90
13606;DHT22;6874;52.084;5.090;2022-12-29T09:06:06;8.80;99.90
13606;DHT22;6874;52.084;5.090;2022-12-29T09:08:31;8.90;99.90
13606;DHT22;6874;52.084;5.090;2022-12-29T09:11:09;8.90;99.90
13606;DHT22;6874;52.084;5.090;2022-12-29T09:13:35;8.90;99.90
13606;DHT22;6874;52.084;5.090;2022-12-29T09:16:01;8.90;99.90
13606;DHT22;6874;52.084;5.090;2022-12-29T09:18:27;8.90;99.90
13606;DHT22;6874;52.084;5.090;2022-12-29T09:21:12;8.90;99.90
13606;DHT22;6874;52.084;5.090;2022-12-29T09:23:38;8.90;99.90
13606;DHT22;6874;52.084;5.090;2022-12-29T09:26:04;8.90;99.90
13606;DHT22;6874;52.084;5.090;2022-12-29T09:28:30;8.90;99.90
13606;DHT22;6874;52.084;5.090;2022-12-29T09:30:57;8.90;99.90
13606;DHT22;6874;52.084;5.090;2022-12-29T09:33:23;8.90;99.90
13606;DHT22;6874;52.084;5.090;2022-12-29T09:35:57;8.90;99.90
13606;DHT22;6874;52.084;5.090;2022-12-29T09:38:24;8.90;99.90
13606;DHT22;6874;52.084;5.090;2022-12-29T09:43:59;8.90;99.90
13606;DHT22;6874;52.084;5.090;2022-12-29T09:46:41;8.90;99.90
13606;DHT22;6874;52.084;5.090;2022-12-29T09:52:02;8.90;99.90
13606;DHT22;6874;52.084;5.090;2022-12-29T09:57:02;8.90;99.90
13606;DHT22;6874;52.084;5.090;2022-12-29T09:59:40;8.90;99.90
13606;DHT22;6874;52.084;5.090;2022-12-29T10:04:42;8.90;99.90
13606;DHT22;6874;52.084;5.090;2022-12-29T10:15:39;8.90;99.90
13606;DHT22;6874;52.084;5.090;2022-12-29T10:20:38;9.00;99.90
13606;DHT22;6874;52.084;5.090;2022-12-29T10:25:44;9.00;99.90
13606;DHT22;6874;52.084;5.090;2022-12-29T10:28:21;9.00;99.90
13606;DHT22;6874;52.084;5.090;2022-12-29T10:30:49;9.00;99.90
13606;DHT22;6874;52.084;5.090;2022-12-29T10:33:32;9.00;99.90
13606;DHT22;6874;52.084;5.090;2022-12-29T10:36:13;9.00;99.90
13606;DHT22;6874;52.084;5.090;2022-12-29T10:38:45;9.00;99.90
13606;DHT22;6874;52.084;5.090;2022-12-29T10:43:49;9.10;99.90
13606;DHT22;6874;52.084;5.090;2022-12-29T10:46:25;9.00;99.90
13606;DHT22;6874;52.084;5.090;2022-12-29T10:48:52;9.10;99.90
13606;DHT22;6874;52.084;5.090;2022-12-29T10:51:32;9.00;99.90
13606;DHT22;6874;52.084;5.090;2022-12-29T10:54:05;9.10;99.90
13606;DHT22;6874;52.084;5.090;2022-12-29T10:56:35;9.00;99.90
13606;DHT22;6874;52.084;5.090;2022-12-29T10:59:32;9.10;99.90
13606;DHT22;6874;52.084;5.090;2022-12-29T11:07:36;9.10;99.90
13606;DHT22;6874;52.084;5.090;2022-12-29T11:10:30;9.10;99.90
13606;DHT22;6874;52.084;5.090;2022-12-29T11:13:15;9.10;99.90
13606;DHT22;6874;52.084;5.090;2022-12-29T11:15:48;9.10;99.90
13606;DHT22;6874;52.084;5.090;2022-12-29T11:18:24;9.10;99.90
13606;DHT22;6874;52.084;5.090;2022-12-29T11:20:53;9.10;99.90
13606;DHT22;6874;52.084;5.090;2022-12-29T11:23:37;9.10;99.90
13606;DHT22;6874;52.084;5.090;2022-12-29T11:28:40;9.10;99.90
13606;DHT22;6874;52.084;5.090;2022-12-29T11:31:07;9.20;99.90
13606;DHT22;6874;52.084;5.090;2022-12-29T11:33:35;9.10;99.90
13606;DHT22;6874;52.084;5.090;2022-12-29T11:36:07;9.20;99.90
13606;DHT22;6874;52.084;5.090;2022-12-29T11:38:41;9.20;99.90
13606;DHT22;6874;52.084;5.090;2022-12-29T11:41:12;9.20;99.90
13606;DHT22;6874;52.084;5.090;2022-12-29T11:43:43;9.20;99.90
13606;DHT22;6874;52.084;5.090;2022-12-29T11:46:30;9.20;99.90
13606;DHT22;6874;52.084;5.090;2022-12-29T11:48:57;9.20;99.90
13606;DHT22;6874;52.084;5.090;2022-12-29T11:51:39;9.20;99.90
13606;DHT22;6874;52.084;5.090;2022-12-29T11:54:19;9.30;99.90
13606;DHT22;6874;52.084;5.090;2022-12-29T11:56:47;9.30;99.90
13606;DHT22;6874;52.084;5.090;2022-12-29T12:02:02;9.30;99.90
13606;DHT22;6874;52.084;5.090;2022-12-29T12:04:31;9.20;99.90
13606;DHT22;6874;52.084;5.090;2022-12-29T12:07:13;9.30;99.90
13606;DHT22;6874;52.084;5.090;2022-12-29T12:09:58;9.30;99.90
13606;DHT22;6874;52.084;5.090;2022-12-29T12:12:33;9.30;99.90
13606;DHT22;6874;52.084;5.090;2022-12-29T12:15:01;9.20;99.90
13606;DHT22;6874;52.084;5.090;2022-12-29T12:17:40;9.30;99.90
13606;DHT22;6874;52.084;5.090;2022-12-29T12:25:43;9.30;99.90
13606;DHT22;6874;52.084;5.090;2022-12-29T12:28:34;9.30;99.90
13606;DHT22;6874;52.084;5.090;2022-12-29T12:31:02;9.30;99.90
13606;DHT22;6874;52.084;5.090;2022-12-29T12:33:36;9.30;99.90
13606;DHT22;6874;52.084;5.090;2022-12-29T12:36:23;9.30;99.90
13606;DHT22;6874;52.084;5.090;2022-12-29T12:44:25;9.30;99.90
13606;DHT22;6874;52.084;5.090;2022-12-29T12:47:35;9.30;99.90
13606;DHT22;6874;52.084;5.090;2022-12-29T12:50:54;9.30;99.90
13606;DHT22;6874;52.084;5.090;2022-12-29T12:55:59;9.30;99.90
13606;DHT22;6874;52.084;5.090;2022-12-29T12:58:39;9.40;99.90
13606;DHT22;6874;52.084;5.090;2022-12-29T13:01:18;9.40;99.90
13606;DHT22;6874;52.084;5.090;2022-12-29T13:09:59;9.40;99.90
13606;DHT22;6874;52.084;5.090;2022-12-29T13:24:03;9.50;99.90
13606;DHT22;6874;52.084;5.090;2022-12-29T13:26:45;9.40;99.90
13606;DHT22;6874;52.084;5.090;2022-12-29T13:37:51;9.40;99.90
13606;DHT22;6874;52.084;5.090;2022-12-29T13:40:23;9.40;99.90
13606;DHT22;6874;52.084;5.090;2022-12-29T13:42:51;9.50;99.90
13606;DHT22;6874;52.084;5.090;2022-12-29T13:45:20;9.40;99.90
13606;DHT22;6874;52.084;5.090;2022-12-29T13:47:55;9.40;99.90
13606;DHT22;6874;52.084;5.090;2022-12-29T13:50:27;9.40;99.90
13606;DHT22;6874;52.084;5.090;2022-12-29T13:55:52;9.40;99.90
13606;DHT22;6874;52.084;5.090;2022-12-29T14:01:53;9.40;99.90
13606;DHT22;6874;52.084;5.090;2022-12-29T14:03:59;9.40;99.90
13606;DHT22;6874;52.084;5.090;2022-12-29T14:06:30;9.40;99.90
13606;DHT22;6874;52.084;5.090;2022-12-29T14:08:59;9.40;99.90
13606;DHT22;6874;52.084;5.090;2022-12-29T14:11:36;9.40;99.90
13606;DHT22;6874;52.084;5.090;2022-12-29T14:14:23;9.40;99.90
13606;DHT22;6874;52.084;5.090;2022-12-29T14:16:51;9.30;99.90
13606;DHT22;6874;52.084;5.090;2022-12-29T14:19:24;9.40;99.90
13606;DHT22;6874;52.084;5.090;2022-12-29T14:22:03;9.30;99.90
13606;DHT22;6874;52.084;5.090;2022-12-29T14:34:51;9.20;99.90
13606;DHT22;6874;52.084;5.090;2022-12-29T14:42:40;9.20;99.90
13606;DHT22;6874;52.084;5.090;2022-12-29T14:47:41;9.20;99.90
13606;DHT22;6874;52.084;5.090;2022-12-29T14:52:54;9.20;99.90
13606;DHT22;6874;52.084;5.090;2022-12-29T14:58:27;9.10;99.90
13606;DHT22;6874;52.084;5.090;2022-12-29T15:00:54;9.10;99.90
13606;DHT22;6874;52.084;5.090;2022-12-29T15:03:32;9.10;99.90
13606;DHT22;6874;52.084;5.090;2022-12-29T15:06:12;9.10;99.90
13606;DHT22;6874;52.084;5.090;2022-12-29T15:08:54;9.10;99.90
13606;DHT22;6874;52.084;5.090;2022-12-29T15:14:33;9.10;99.90
13606;DHT22;6874;52.084;5.090;2022-12-29T15:16:59;9.10;99.90
13606;DHT22;6874;52.084;5.090;2022-12-29T15:19:26;9.10;99.90
13606;DHT22;6874;52.084;5.090;2022-12-29T15:21:53;9.10;99.90
13606;DHT22;6874;52.084;5.090;2022-12-29T15:24:19;9.10;99.90
13606;DHT22;6874;52.084;5.090;2022-12-29T15:26:47;9.00;99.90
13606;DHT22;6874;52.084;5.090;2022-12-29T15:29:40;9.00;99.90
13606;DHT22;6874;52.084;5.090;2022-12-29T15:32:18;9.10;99.90
13606;DHT22;6874;52.084;5.090;2022-12-29T15:34:46;9.00;99.90
13606;DHT22;6874;52.084;5.090;2022-12-29T15:37:33;9.00;99.90
13606;DHT22;6874;52.084;5.090;2022-12-29T15:40:00;9.10;99.90
13606;DHT22;6874;52.084;5.090;2022-12-29T15:42:54;9.10;99.90
13606;DHT22;6874;52.084;5.090;2022-12-29T15:45:30;9.00;99.90
13606;DHT22;6874;52.084;5.090;2022-12-29T15:47:58;9.00;99.90
13606;DHT22;6874;52.084;5.090;2022-12-29T15:50:35;9.00;99.90
13606;DHT22;6874;52.084;5.090;2022-12-29T15:53:03;9.00;99.90
13606;DHT22;6874;52.084;5.090;2022-12-29T15:55:40;9.00;99.90
13606;DHT22;6874;52.084;5.090;2022-12-29T15:58:25;9.00;99.90
13606;DHT22;6874;52.084;5.090;2022-12-29T16:00:57;9.00;99.90
13606;DHT22;6874;52.084;5.090;2022-12-29T16:03:24;9.00;99.90
13606;DHT22;6874;52.084;5.090;2022-12-29T16:06:08;9.00;99.90
13606;DHT22;6874;52.084;5.090;2022-12-29T16:08:35;9.00;99.90
13606;DHT22;6874;52.084;5.090;2022-12-29T16:11:22;9.00;99.90
13606;DHT22;6874;52.084;5.090;2022-12-29T16:13:50;9.00;99.90
13606;DHT22;6874;52.084;5.090;2022-12-29T16:16:31;8.90;99.90
13606;DHT22;6874;52.084;5.090;2022-12-29T16:19:09;8.90;99.90
13606;DHT22;6874;52.084;5.090;2022-12-29T16:21:36;9.00;99.90
13606;DHT22;6874;52.084;5.090;2022-12-29T16:24:06;9.00;99.90
13606;DHT22;6874;52.084;5.090;2022-12-29T16:26:33;8.90;99.90
13606;DHT22;6874;52.084;5.090;2022-12-29T16:29:01;8.90;99.90
13606;DHT22;6874;52.084;5.090;2022-12-29T16:31:38;8.90;99.90
13606;DHT22;6874;52.084;5.090;2022-12-29T16:39:53;8.90;99.90
13606;DHT22;6874;52.084;5.090;2022-12-29T16:47:50;8.80;99.90
13606;DHT22;6874;52.084;5.090;2022-12-29T16:50:31;8.80;99.90
13606;DHT22;6874;52.084;5.090;2022-12-29T16:52:57;8.70;99.90
13606;DHT22;6874;52.084;5.090;2022-12-29T16:55:23;8.80;99.90
13606;DHT22;6874;52.084;5.090;2022-12-29T16:57:50;8.70;99.90
13606;DHT22;6874;52.084;5.090;2022-12-29T17:00:20;8.70;99.90
13606;DHT22;6874;52.084;5.090;2022-12-29T17:02:51;8.70;99.90
13606;DHT22;6874;52.084;5.090;2022-12-29T17:05:18;8.70;99.90
13606;DHT22;6874;52.084;5.090;2022-12-29T17:07:45;8.60;99.90
13606;DHT22;6874;52.084;5.090;2022-12-29T17:10:11;8.60;99.90
13606;DHT22;6874;52.084;5.090;2022-12-29T17:12:38;8.60;99.90
13606;DHT22;6874;52.084;5.090;2022-12-29T17:15:14;8.60;99.90
13606;DHT22;6874;52.084;5.090;2022-12-29T17:17:44;8.60;99.90
13606;DHT22;6874;52.084;5.090;2022-12-29T17:20:25;8.60;99.90
13606;DHT22;6874;52.084;5.090;2022-12-29T17:22:52;8.50;99.90
13606;DHT22;6874;52.084;5.090;2022-12-29T17:25:28;8.50;99.90
13606;DHT22;6874;52.084;5.090;2022-12-29T17:27:59;8.50;99.90
13606;DHT22;6874;52.084;5.090;2022-12-29T17:30:26;8.50;99.90
13606;DHT22;6874;52.084;5.090;2022-12-29T17:32:55;8.50;99.90
13606;DHT22;6874;52.084;5.090;2022-12-29T17:35:23;8.40;99.90
13606;DHT22;6874;52.084;5.090;2022-12-29T17:37:49;8.40;99.90
13606;DHT22;6874;52.084;5.090;2022-12-29T17:40:20;8.40;99.90
13606;DHT22;6874;52.084;5.090;2022-12-29T17:42:52;8.40;99.90
13606;DHT22;6874;52.084;5.090;2022-12-29T17:45:29;8.40;99.90
13606;DHT22;6874;52.084;5.090;2022-12-29T17:47:56;8.40;99.90
13606;DHT22;6874;52.084;5.090;2022-12-29T17:50:26;8.40;99.90
13606;DHT22;6874;52.084;5.090;2022-12-29T17:53:06;8.30;99.90
13606;DHT22;6874;52.084;5.090;2022-12-29T17:55:33;8.30;99.90
13606;DHT22;6874;52.084;5.090;2022-12-29T17:57:59;8.20;99.90
13606;DHT22;6874;52.084;5.090;2022-12-29T18:00:26;8.20;99.90
13606;DHT22;6874;52.084;5.090;2022-12-29T18:02:53;8.20;99.90
13606;DHT22;6874;52.084;5.090;2022-12-29T18:05:23;8.20;99.90
13606;DHT22;6874;52.084;5.090;2022-12-29T18:07:51;8.10;99.90
13606;DHT22;6874;52.084;5.090;2022-12-29T18:10:18;8.10;99.90
13606;DHT22;6874;52.084;5.090;2022-12-29T18:12:49;8.10;99.90
13606;DHT22;6874;52.084;5.090;2022-12-29T18:15:21;8.10;99.90
13606;DHT22;6874;52.084;5.090;2022-12-29T18:17:48;8.10;99.90
13606;DHT22;6874;52.084;5.090;2022-12-29T18:20:14;8.10;99.90
13606;DHT22;6874;52.084;5.090;2022-12-29T18:22:39;8.10;99.90
13606;DHT22;6874;52.084;5.090;2022-12-29T18:25:23;8.00;99.90
13606;DHT22;6874;52.084;5.090;2022-12-29T18:27:49;8.00;99.90
13606;DHT22;6874;52.084;5.090;2022-12-29T18:30:15;8.00;99.90
13606;DHT22;6874;52.084;5.090;2022-12-29T18:32:41;8.00;99.90
13606;DHT22;6874;52.084;5.090;2022-12-29T18:35:25;8.00;99.90
13606;DHT22;6874;52.084;5.090;2022-12-29T18:37:50;7.90;99.90
13606;DHT22;6874;52.084;5.090;2022-12-29T18:40:16;7.90;99.90
13606;DHT22;6874;52.084;5.090;2022-12-29T18:42:44;7.90;99.90
13606;DHT22;6874;52.084;5.090;2022-12-29T18:45:21;7.90;99.90
13606;DHT22;6874;52.084;5.090;2022-12-29T18:47:47;7.90;99.90
13606;DHT22;6874;52.084;5.090;2022-12-29T18:50:13;7.90;99.90
13606;DHT22;6874;52.084;5.090;2022-12-29T18:52:38;7.90;99.90
13606;DHT22;6874;52.084;5.090;2022-12-29T18:55:14;7.80;99.90
13606;DHT22;6874;52.084;5.090;2022-12-29T18:57:39;7.80;99.90
13606;DHT22;6874;52.084;5.090;2022-12-29T19:00:06;7.80;99.90